createdAt,value
2018-12-27T00:00:36.286Z,0.2
2018-12-27T00:01:38.969Z,0.2
2018-12-27T00:02:42.205Z,0.2
2018-12-27T00:03:45.305Z,0.2
2018-12-27T00:04:48.697Z,0.2
2018-12-27T00:05:51.576Z,0.2
2018-12-27T00:06:54.730Z,0.2
2018-12-27T00:07:57.761Z,0.2
2018-12-27T00:09:01.105Z,0.2
2018-12-27T00:10:04.502Z,0.2
2018-12-27T00:11:07.249Z,0.2
2018-12-27T00:12:11.604Z,0.2
2018-12-27T00:13:14.726Z,0.2
2018-12-27T00:14:17.685Z,0.2
2018-12-27T00:15:20.324Z,0.2
2018-12-27T00:16:23.360Z,0.3
2018-12-27T00:17:26.512Z,0.2
2018-12-27T00:18:28.747Z,0.2
2018-12-27T00:19:30.781Z,0.2
2018-12-27T00:20:32.916Z,0.2
2018-12-27T00:21:37.020Z,0.2
2018-12-27T00:22:40.734Z,0.2
2018-12-27T00:23:44.761Z,0.2
2018-12-27T00:24:46.856Z,0.2
2018-12-27T00:25:49.368Z,0.2
2018-12-27T00:26:51.552Z,0.2
2018-12-27T00:27:53.450Z,0.2
2018-12-27T00:28:55.584Z,0.1
2018-12-27T00:29:57.856Z,0.2
2018-12-27T00:31:00.770Z,0.2
2018-12-27T00:32:02.692Z,0.2
2018-12-27T00:33:04.806Z,0.2
2018-12-27T00:34:06.694Z,0.2
2018-12-27T00:35:08.657Z,0.2
2018-12-27T00:36:10.694Z,0.1
2018-12-27T00:37:12.901Z,0.2
2018-12-27T00:38:14.944Z,0.2
2018-12-27T00:39:16.937Z,0.2
2018-12-27T00:40:19.051Z,0.2
2018-12-27T00:41:21.088Z,0.2
2018-12-27T00:42:24.030Z,0.1
2018-12-27T00:43:26.066Z,0.1
2018-12-27T00:44:28.086Z,0.2
2018-12-27T00:45:30.000Z,0.2
2018-12-27T00:46:31.991Z,0.1
2018-12-27T00:47:34.499Z,0.2
2018-12-27T00:48:36.564Z,0.2
2018-12-27T00:49:38.592Z,0.2
2018-12-27T00:50:40.607Z,0.2
2018-12-27T00:51:42.322Z,0.2
2018-12-27T00:52:45.231Z,0.2
2018-12-27T00:53:47.657Z,0.2
2018-12-27T00:54:49.326Z,0.2
2018-12-27T00:55:51.027Z,0.1
2018-12-27T00:56:52.711Z,0.2
2018-12-27T00:57:54.267Z,0.2
2018-12-27T00:58:55.987Z,0.1
2018-12-27T00:59:57.632Z,0.2
2018-12-27T01:00:59.181Z,0.2
2018-12-27T01:02:00.876Z,0.2
2018-12-27T01:03:02.551Z,0.2
2018-12-27T01:04:04.615Z,0.1
2018-12-27T01:05:06.590Z,0.2
2018-12-27T01:06:08.657Z,0.2
2018-12-27T01:07:11.130Z,0.1
2018-12-27T01:08:12.661Z,0.1
2018-12-27T01:09:14.247Z,0.1
2018-12-27T01:10:16.035Z,0.2
2018-12-27T01:11:17.610Z,0.1
2018-12-27T01:12:19.227Z,0.1
2018-12-27T01:13:21.525Z,0.1
2018-12-27T01:14:23.235Z,0.0
2018-12-27T01:15:26.115Z,0.1
2018-12-27T01:16:27.861Z,0.1
2018-12-27T01:17:29.587Z,-0.0
2018-12-27T01:18:31.093Z,0.1
2018-12-27T01:19:33.573Z,0.1
2018-12-27T01:20:35.287Z,0.0
2018-12-27T01:21:37.051Z,0.1
2018-12-27T01:22:38.852Z,-0.0
2018-12-27T01:23:40.805Z,0.1
2018-12-27T01:24:42.625Z,0.0
2018-12-27T01:25:44.493Z,0.1
2018-12-27T01:26:46.122Z,0.1
2018-12-27T01:27:47.848Z,0.0
2018-12-27T01:28:49.351Z,0.1
2018-12-27T01:29:51.001Z,-0.1
2018-12-27T01:30:53.409Z,0.0
2018-12-27T01:31:56.136Z,0.1
2018-12-27T01:32:59.607Z,-0.0
2018-12-27T01:34:00.404Z,-0.0
2018-12-27T01:35:02.948Z,-0.1
2018-12-27T01:36:04.571Z,-0.1
2018-12-27T01:37:06.085Z,-0.1
2018-12-27T01:38:07.844Z,-0.1
2018-12-27T01:39:09.602Z,-0.1
2018-12-27T01:40:11.155Z,-0.1
2018-12-27T01:41:12.852Z,-0.2
2018-12-27T01:42:14.577Z,-0.0
2018-12-27T01:43:16.407Z,-0.2
2018-12-27T01:44:18.147Z,-0.2
2018-12-27T01:45:19.727Z,-0.2
2018-12-27T01:46:21.372Z,-0.1
2018-12-27T01:47:23.022Z,-0.2
2018-12-27T01:48:24.628Z,-0.2
2018-12-27T01:49:26.315Z,-0.2
2018-12-27T01:50:27.962Z,-0.1
2018-12-27T01:51:29.533Z,-0.1
2018-12-27T01:52:31.192Z,-0.2
2018-12-27T01:53:32.818Z,-0.2
2018-12-27T01:54:36.124Z,-0.2
2018-12-27T01:55:37.593Z,-0.2
2018-12-27T01:56:39.160Z,-0.2
2018-12-27T01:57:40.706Z,-0.2
2018-12-27T01:58:42.186Z,-0.1
2018-12-27T01:59:44.412Z,-0.2
2018-12-27T02:00:46.098Z,-0.2
2018-12-27T02:01:47.813Z,-0.1
2018-12-27T02:02:49.486Z,-0.2
2018-12-27T02:03:51.348Z,-0.1
2018-12-27T02:04:53.031Z,-0.2
2018-12-27T02:05:54.911Z,-0.1
2018-12-27T02:06:56.612Z,-0.2
2018-12-27T02:07:58.151Z,-0.1
2018-12-27T02:08:59.862Z,-0.1
2018-12-27T02:10:01.736Z,-0.2
2018-12-27T02:11:03.372Z,-0.2
2018-12-27T02:12:06.022Z,-0.1
2018-12-27T02:13:07.922Z,-0.1
2018-12-27T02:14:09.783Z,-0.2
2018-12-27T02:15:11.722Z,-0.2
2018-12-27T02:16:13.326Z,-0.2
2018-12-27T02:17:15.122Z,-0.1
2018-12-27T02:18:17.321Z,-0.2
2018-12-27T02:19:19.226Z,-0.2
2018-12-27T02:20:21.498Z,-0.1
2018-12-27T02:21:22.761Z,-0.1
2018-12-27T02:22:24.460Z,-0.2
2018-12-27T02:23:26.257Z,-0.2
2018-12-27T02:24:27.723Z,-0.1
2018-12-27T02:25:29.186Z,-0.2
2018-12-27T02:26:30.657Z,-0.1
2018-12-27T02:27:32.132Z,-0.2
2018-12-27T02:28:33.642Z,-0.2
2018-12-27T02:29:35.187Z,-0.2
2018-12-27T02:30:37.353Z,-0.1
2018-12-27T02:31:38.844Z,-0.1
2018-12-27T02:32:40.303Z,-0.2
2018-12-27T02:33:41.861Z,-0.2
2018-12-27T02:34:43.367Z,-0.1
2018-12-27T02:35:44.902Z,-0.1
2018-12-27T02:36:47.172Z,-0.1
2018-12-27T02:37:48.631Z,-0.1
2018-12-27T02:38:50.025Z,-0.2
2018-12-27T02:39:51.399Z,-0.1
2018-12-27T02:40:52.797Z,-0.2
2018-12-27T02:41:54.166Z,-0.1
2018-12-27T02:42:55.558Z,-0.2
2018-12-27T02:43:57.599Z,-0.1
2018-12-27T02:44:59.072Z,-0.2
2018-12-27T02:46:01.094Z,-0.2
2018-12-27T02:47:02.588Z,-0.1
2018-12-27T02:48:04.551Z,-0.2
2018-12-27T02:49:06.040Z,-0.2
2018-12-27T02:50:07.546Z,-0.1
2018-12-27T02:51:09.646Z,-0.2
2018-12-27T02:52:11.122Z,-0.2
2018-12-27T02:53:12.572Z,-0.2
2018-12-27T02:54:13.968Z,-0.2
2018-12-27T02:55:15.396Z,-0.3
2018-12-27T02:56:17.694Z,-0.2
2018-12-27T02:57:19.115Z,-0.2
2018-12-27T02:58:21.049Z,-0.3
2018-12-27T02:59:22.509Z,-0.2
2018-12-27T03:00:23.893Z,-0.3
2018-12-27T03:01:25.308Z,-0.2
2018-12-27T03:02:26.713Z,-0.3
2018-12-27T03:03:28.210Z,-0.3
2018-12-27T03:04:29.648Z,-0.4
2018-12-27T03:05:31.069Z,-0.4
2018-12-27T03:06:32.535Z,-0.4
2018-12-27T03:07:33.932Z,-0.3
2018-12-27T03:08:35.349Z,-0.3
2018-12-27T03:09:36.755Z,-0.2
2018-12-27T03:10:38.169Z,-0.3
2018-12-27T03:11:39.577Z,-0.3
2018-12-27T03:12:40.963Z,-0.3
2018-12-27T03:13:42.399Z,-0.3
2018-12-27T03:14:43.827Z,-0.2
2018-12-27T03:15:45.259Z,-0.3
2018-12-27T03:16:46.694Z,-0.3
2018-12-27T03:17:48.171Z,-0.4
2018-12-27T03:18:49.561Z,-0.3
2018-12-27T03:19:51.004Z,-0.4
2018-12-27T03:20:52.412Z,-0.3
2018-12-27T03:21:53.809Z,-0.4
2018-12-27T03:22:55.210Z,-0.3
2018-12-27T03:23:56.593Z,-0.4
2018-12-27T03:24:58.030Z,-0.3
2018-12-27T03:25:59.422Z,-0.4
2018-12-27T03:27:00.887Z,-0.3
2018-12-27T03:28:02.318Z,-0.3
2018-12-27T03:29:03.779Z,-0.4
2018-12-27T03:30:05.229Z,-0.4
2018-12-27T03:31:06.665Z,-0.4
2018-12-27T03:32:08.136Z,-0.3
2018-12-27T03:33:09.560Z,-0.3
2018-12-27T03:34:10.977Z,-0.4
2018-12-27T03:35:12.351Z,-0.4
2018-12-27T03:36:13.777Z,-0.4
2018-12-27T03:37:15.227Z,-0.4
2018-12-27T03:38:16.687Z,-0.4
2018-12-27T03:39:18.184Z,-0.4
2018-12-27T03:40:19.683Z,-0.4
2018-12-27T03:41:21.168Z,-0.4
2018-12-27T03:42:22.575Z,-0.4
2018-12-27T03:43:24.848Z,-0.4
2018-12-27T03:44:26.262Z,-0.5
2018-12-27T03:45:27.701Z,-0.4
2018-12-27T03:46:29.149Z,-0.4
2018-12-27T03:47:30.565Z,-0.4
2018-12-27T03:48:31.967Z,-0.4
2018-12-27T03:49:33.390Z,-0.4
2018-12-27T03:50:34.758Z,-0.4
2018-12-27T03:51:36.181Z,-0.4
2018-12-27T03:52:37.614Z,-0.4
2018-12-27T03:53:39.022Z,-0.5
2018-12-27T03:54:40.399Z,-0.5
2018-12-27T03:55:41.825Z,-0.4
2018-12-27T03:56:43.372Z,-0.4
2018-12-27T03:57:44.742Z,-0.4
2018-12-27T03:58:46.122Z,-0.4
2018-12-27T03:59:47.509Z,-0.4
2018-12-27T04:00:48.943Z,-0.4
2018-12-27T04:01:50.349Z,-0.5
2018-12-27T04:02:51.741Z,-0.5
2018-12-27T04:04:00.989Z,-0.4
2018-12-27T04:04:54.564Z,-0.4
2018-12-27T04:05:55.940Z,-0.4
2018-12-27T04:06:57.329Z,-0.5
2018-12-27T04:07:59.630Z,-0.5
2018-12-27T04:09:00.121Z,-0.5
2018-12-27T04:10:02.408Z,-0.5
2018-12-27T04:11:03.775Z,-0.4
2018-12-27T04:12:05.154Z,-0.6
2018-12-27T04:13:06.569Z,-0.5
2018-12-27T04:14:07.944Z,-0.4
2018-12-27T04:15:09.360Z,-0.4
2018-12-27T04:16:11.584Z,-0.5
2018-12-27T04:17:12.967Z,-0.4
2018-12-27T04:18:14.346Z,-0.5
2018-12-27T04:19:15.764Z,-0.5
2018-12-27T04:20:17.170Z,-0.4
2018-12-27T04:21:18.565Z,-0.4
2018-12-27T04:22:19.953Z,-0.5
2018-12-27T04:23:22.363Z,-0.4
2018-12-27T04:24:23.754Z,-0.4
2018-12-27T04:25:25.145Z,-0.4
2018-12-27T04:26:26.535Z,-0.4
2018-12-27T04:27:27.922Z,-0.5
2018-12-27T04:28:29.355Z,-0.4
2018-12-27T04:29:30.749Z,-0.3
2018-12-27T04:30:32.173Z,-0.5
2018-12-27T04:31:33.637Z,-0.4
2018-12-27T04:32:35.073Z,-0.4
2018-12-27T04:33:37.323Z,-0.5
2018-12-27T04:34:38.763Z,-0.5
2018-12-27T04:35:40.183Z,-0.4
2018-12-27T04:36:41.593Z,-0.5
2018-12-27T04:37:43.003Z,-0.5
2018-12-27T04:38:44.438Z,-0.5
2018-12-27T04:39:45.883Z,-0.5
2018-12-27T04:40:47.344Z,-0.5
2018-12-27T04:41:48.797Z,-0.5
2018-12-27T04:42:50.233Z,-0.5
2018-12-27T04:43:52.276Z,-0.5
2018-12-27T04:44:53.699Z,-0.5
2018-12-27T04:45:55.189Z,-0.4
2018-12-27T04:46:56.629Z,-0.5
2018-12-27T04:47:58.079Z,-0.5
2018-12-27T04:49:00.570Z,-0.4
2018-12-27T04:50:02.080Z,-0.4
2018-12-27T04:51:03.533Z,-0.4
2018-12-27T04:52:04.930Z,-0.5
2018-12-27T04:53:06.450Z,-0.4
2018-12-27T04:54:07.909Z,-0.4
2018-12-27T04:55:09.359Z,-0.4
2018-12-27T04:56:10.795Z,-0.4
2018-12-27T04:57:12.211Z,-0.4
2018-12-27T04:58:13.624Z,-0.4
2018-12-27T04:59:15.096Z,-0.4
2018-12-27T05:00:16.525Z,-0.4
2018-12-27T05:01:18.636Z,-0.4
2018-12-27T05:02:20.096Z,-0.3
2018-12-27T05:03:21.545Z,-0.4
2018-12-27T05:04:22.994Z,-0.4
2018-12-27T05:05:24.429Z,-0.4
2018-12-27T05:06:25.838Z,-0.4
2018-12-27T05:07:27.303Z,-0.4
2018-12-27T05:08:28.753Z,-0.4
2018-12-27T05:09:30.173Z,-0.4
2018-12-27T05:10:31.583Z,-0.4
2018-12-27T05:11:33.734Z,-0.3
2018-12-27T05:12:35.144Z,-0.4
2018-12-27T05:13:38.203Z,-0.4
2018-12-27T05:14:40.644Z,-0.4
2018-12-27T05:15:40.989Z,-0.4
2018-12-27T05:16:42.478Z,-0.3
2018-12-27T05:17:43.940Z,-0.4
2018-12-27T05:18:45.428Z,-0.4
2018-12-27T05:19:46.858Z,-0.4
2018-12-27T05:20:48.271Z,-0.4
2018-12-27T05:21:49.784Z,-0.3
2018-12-27T05:22:51.246Z,-0.4
2018-12-27T05:23:52.700Z,-0.4
2018-12-27T05:24:54.138Z,-0.3
2018-12-27T05:25:55.605Z,-0.3
2018-12-27T05:26:57.658Z,-0.3
2018-12-27T05:27:59.113Z,-0.3
2018-12-27T05:29:00.581Z,-0.4
2018-12-27T05:30:02.088Z,-0.4
2018-12-27T05:31:03.553Z,-0.3
2018-12-27T05:32:05.020Z,-0.4
2018-12-27T05:33:06.503Z,-0.3
2018-12-27T05:34:07.933Z,-0.4
2018-12-27T05:35:10.318Z,-0.4
2018-12-27T05:36:11.870Z,-0.4
2018-12-27T05:37:13.324Z,-0.3
2018-12-27T05:38:14.817Z,-0.3
2018-12-27T05:39:16.268Z,-0.3
2018-12-27T05:40:17.779Z,-0.3
2018-12-27T05:41:19.160Z,-0.3
2018-12-27T05:42:20.596Z,-0.3
2018-12-27T05:43:22.059Z,-0.3
2018-12-27T05:44:23.478Z,-0.4
2018-12-27T05:45:24.875Z,-0.3
2018-12-27T05:46:26.295Z,-0.3
2018-12-27T05:47:27.815Z,-0.4
2018-12-27T05:48:29.266Z,-0.3
2018-12-27T05:49:30.695Z,-0.4
2018-12-27T05:50:32.190Z,-0.3
2018-12-27T05:51:33.655Z,-0.3
2018-12-27T05:52:35.101Z,-0.4
2018-12-27T05:53:38.145Z,-0.4
2018-12-27T05:54:41.898Z,-0.3
2018-12-27T05:55:43.344Z,-0.4
2018-12-27T05:56:44.793Z,-0.3
2018-12-27T05:57:46.279Z,-0.3
2018-12-27T05:58:47.709Z,-0.3
2018-12-27T05:59:49.108Z,-0.4
2018-12-27T06:00:50.543Z,-0.3
2018-12-27T06:01:51.934Z,-0.4
2018-12-27T06:02:53.379Z,-0.3
2018-12-27T06:03:54.779Z,-0.3
2018-12-27T06:04:57.209Z,-0.4
2018-12-27T06:05:58.670Z,-0.4
2018-12-27T06:07:00.939Z,-0.4
2018-12-27T06:08:02.413Z,-0.3
2018-12-27T06:09:03.874Z,-0.4
2018-12-27T06:10:05.394Z,-0.3
2018-12-27T06:11:06.834Z,-0.4
2018-12-27T06:12:08.280Z,-0.3
2018-12-27T06:13:09.740Z,-0.3
2018-12-27T06:14:11.185Z,-0.4
2018-12-27T06:15:12.626Z,-0.4
2018-12-27T06:16:14.826Z,-0.3
2018-12-27T06:17:16.255Z,-0.5
2018-12-27T06:18:17.815Z,-0.4
2018-12-27T06:19:19.234Z,-0.3
2018-12-27T06:20:20.724Z,-0.4
2018-12-27T06:21:22.185Z,-0.4
2018-12-27T06:22:23.694Z,-0.3
2018-12-27T06:23:25.185Z,-0.4
2018-12-27T06:24:26.607Z,-0.4
2018-12-27T06:25:28.120Z,-0.4
2018-12-27T06:26:29.572Z,-0.4
2018-12-27T06:27:31.076Z,-0.4
2018-12-27T06:28:32.516Z,-0.4
2018-12-27T06:29:33.996Z,-0.4
2018-12-27T06:30:35.436Z,-0.3
2018-12-27T06:31:36.838Z,-0.3
2018-12-27T06:32:38.907Z,-0.4
2018-12-27T06:33:40.358Z,-0.4
2018-12-27T06:34:41.807Z,-0.3
2018-12-27T06:35:43.280Z,-0.4
2018-12-27T06:36:44.809Z,-0.3
2018-12-27T06:37:46.794Z,-0.4
2018-12-27T06:38:48.244Z,-0.4
2018-12-27T06:39:49.698Z,-0.4
2018-12-27T06:40:51.186Z,-0.4
2018-12-27T06:41:52.687Z,-0.4
2018-12-27T06:42:55.666Z,-0.4
2018-12-27T06:43:57.156Z,-0.4
2018-12-27T06:44:59.407Z,-0.3
2018-12-27T06:46:00.906Z,-0.3
2018-12-27T06:47:02.342Z,-0.4
2018-12-27T06:48:03.786Z,-0.4
2018-12-27T06:49:05.238Z,-0.3
2018-12-27T06:50:06.725Z,-0.4
2018-12-27T06:51:08.194Z,-0.4
2018-12-27T06:52:09.694Z,-0.4
2018-12-27T06:53:11.196Z,-0.4
2018-12-27T06:54:12.681Z,-0.4
2018-12-27T06:55:14.175Z,-0.4
2018-12-27T06:56:15.550Z,-0.4
2018-12-27T06:57:16.976Z,-0.3
2018-12-27T06:58:18.387Z,-0.5
2018-12-27T06:59:19.787Z,-0.4
2018-12-27T07:00:21.176Z,-0.3
2018-12-27T07:01:22.617Z,-0.4
2018-12-27T07:02:24.066Z,-0.3
2018-12-27T07:03:25.490Z,-0.3
2018-12-27T07:04:26.885Z,-0.4
2018-12-27T07:05:28.355Z,-0.3
2018-12-27T07:06:29.839Z,-0.3
2018-12-27T07:07:31.320Z,-0.2
2018-12-27T07:08:32.780Z,-0.4
2018-12-27T07:09:34.845Z,-0.4
2018-12-27T07:10:36.276Z,-0.3
2018-12-27T07:11:37.736Z,-0.3
2018-12-27T07:12:39.165Z,-0.3
2018-12-27T07:13:40.626Z,-0.2
2018-12-27T07:14:42.116Z,-0.3
2018-12-27T07:15:43.563Z,-0.3
2018-12-27T07:16:45.056Z,-0.3
2018-12-27T07:17:46.512Z,-0.3
2018-12-27T07:18:48.569Z,-0.3
2018-12-27T07:19:50.055Z,-0.3
2018-12-27T07:20:51.545Z,-0.3
2018-12-27T07:21:53.006Z,-0.3
2018-12-27T07:22:54.411Z,-0.3
2018-12-27T07:23:55.849Z,-0.3
2018-12-27T07:24:59.122Z,-0.4
2018-12-27T07:26:00.520Z,-0.3
2018-12-27T07:27:02.350Z,-0.3
2018-12-27T07:28:04.330Z,-0.3
2018-12-27T07:29:06.581Z,-0.3
2018-12-27T07:30:08.036Z,-0.3
2018-12-27T07:31:09.540Z,-0.3
2018-12-27T07:32:10.947Z,-0.4
2018-12-27T07:33:12.390Z,-0.3
2018-12-27T07:34:13.811Z,-0.4
2018-12-27T07:35:15.218Z,-0.4
2018-12-27T07:36:16.611Z,-0.3
2018-12-27T07:37:18.855Z,-0.4
2018-12-27T07:38:20.981Z,-0.3
2018-12-27T07:39:22.456Z,-0.3
2018-12-27T07:40:23.868Z,-0.3
2018-12-27T07:41:25.261Z,-0.3
2018-12-27T07:42:26.678Z,-0.3
2018-12-27T07:43:28.131Z,-0.3
2018-12-27T07:44:30.283Z,-0.2
2018-12-27T07:45:31.774Z,-0.3
2018-12-27T07:46:33.209Z,-0.3
2018-12-27T07:47:34.676Z,-0.2
2018-12-27T07:48:36.126Z,-0.3
2018-12-27T07:49:37.602Z,-0.3
2018-12-27T07:50:39.109Z,-0.3
2018-12-27T07:51:40.557Z,-0.3
2018-12-27T07:52:42.015Z,-0.2
2018-12-27T07:53:43.487Z,-0.3
2018-12-27T07:54:45.032Z,-0.2
2018-12-27T07:55:46.486Z,-0.3
2018-12-27T07:56:47.905Z,-0.3
2018-12-27T07:57:49.270Z,-0.2
2018-12-27T07:58:50.752Z,-0.3
2018-12-27T07:59:52.205Z,-0.3
2018-12-27T08:00:53.596Z,-0.2
2018-12-27T08:01:55.212Z,-0.2
2018-12-27T08:02:56.705Z,-0.2
2018-12-27T08:03:58.241Z,-0.2
2018-12-27T08:05:03.988Z,-0.2
2018-12-27T08:06:02.157Z,-0.3
2018-12-27T08:07:03.617Z,-0.4
2018-12-27T08:08:05.760Z,-0.2
2018-12-27T08:09:07.243Z,-0.3
2018-12-27T08:10:09.625Z,-0.3
2018-12-27T08:11:11.102Z,-0.3
2018-12-27T08:12:12.655Z,-0.2
2018-12-27T08:13:14.111Z,-0.2
2018-12-27T08:14:15.628Z,-0.2
2018-12-27T08:15:17.101Z,-0.1
2018-12-27T08:16:19.132Z,-0.1
2018-12-27T08:17:20.620Z,-0.1
2018-12-27T08:18:22.055Z,-0.1
2018-12-27T08:19:23.523Z,-0.2
2018-12-27T08:20:25.060Z,-0.1
2018-12-27T08:21:27.161Z,-0.2
2018-12-27T08:22:28.737Z,-0.2
2018-12-27T08:23:30.451Z,-0.1
2018-12-27T08:24:31.962Z,-0.2
2018-12-27T08:25:33.412Z,-0.0
2018-12-27T08:26:34.896Z,-0.1
2018-12-27T08:27:36.345Z,-0.2
2018-12-27T08:28:37.781Z,-0.1
2018-12-27T08:29:39.278Z,-0.0
2018-12-27T08:30:40.696Z,-0.0
2018-12-27T08:31:42.812Z,-0.1
2018-12-27T08:32:44.312Z,-0.1
2018-12-27T08:33:45.803Z,0.1
2018-12-27T08:34:47.271Z,-0.1
2018-12-27T08:35:49.421Z,0.0
2018-12-27T08:36:50.961Z,0.0
2018-12-27T08:37:52.855Z,-0.0
2018-12-27T08:38:54.520Z,0.0
2018-12-27T08:39:56.026Z,-0.0
2018-12-27T08:40:57.735Z,-0.1
2018-12-27T08:41:59.416Z,-0.1
2018-12-27T08:43:00.918Z,-0.1
2018-12-27T08:44:02.404Z,-0.0
2018-12-27T08:45:03.886Z,-0.0
2018-12-27T08:46:05.293Z,-0.1
2018-12-27T08:47:06.783Z,-0.2
2018-12-27T08:48:08.238Z,-0.1
2018-12-27T08:49:09.692Z,-0.1
2018-12-27T08:50:11.750Z,-0.2
2018-12-27T08:51:13.223Z,-0.2
2018-12-27T08:52:14.795Z,-0.1
2018-12-27T08:53:16.261Z,-0.1
2018-12-27T08:54:17.770Z,-0.2
2018-12-27T08:55:19.246Z,-0.2
2018-12-27T08:56:20.757Z,-0.2
2018-12-27T08:57:22.261Z,-0.2
2018-12-27T08:58:23.750Z,-0.1
2018-12-27T08:59:25.228Z,-0.2
2018-12-27T09:00:26.678Z,-0.2
2018-12-27T09:01:28.193Z,-0.1
2018-12-27T09:02:30.453Z,-0.2
2018-12-27T09:03:31.939Z,-0.2
2018-12-27T09:04:34.183Z,-0.2
2018-12-27T09:05:34.843Z,-0.1
2018-12-27T09:06:36.278Z,-0.1
2018-12-27T09:07:37.757Z,-0.1
2018-12-27T09:08:40.151Z,-0.2
2018-12-27T09:09:41.727Z,-0.2
2018-12-27T09:10:43.193Z,-0.1
2018-12-27T09:11:44.682Z,-0.1
2018-12-27T09:12:46.216Z,-0.1
2018-12-27T09:13:47.736Z,0.0
2018-12-27T09:14:49.191Z,0.0
2018-12-27T09:15:50.786Z,0.0
2018-12-27T09:16:52.303Z,0.1
2018-12-27T09:17:53.717Z,0.1
2018-12-27T09:18:55.268Z,-0.0
2018-12-27T09:19:56.787Z,0.0
2018-12-27T09:20:58.222Z,0.1
2018-12-27T09:21:59.726Z,-0.0
2018-12-27T09:23:02.012Z,0.1
2018-12-27T09:24:03.481Z,-0.0
2018-12-27T09:25:04.958Z,-0.1
2018-12-27T09:26:06.441Z,-0.0
2018-12-27T09:27:07.892Z,0.0
2018-12-27T09:28:10.296Z,0.0
2018-12-27T09:29:11.776Z,0.1
2018-12-27T09:30:13.301Z,0.0
2018-12-27T09:31:14.772Z,0.0
2018-12-27T09:32:17.187Z,0.1
2018-12-27T09:33:17.662Z,0.1
2018-12-27T09:34:19.287Z,0.1
2018-12-27T09:35:26.290Z,0.1
2018-12-27T09:36:23.251Z,0.1
2018-12-27T09:37:24.847Z,0.1
2018-12-27T09:38:27.345Z,0.1
2018-12-27T09:39:28.943Z,0.0
2018-12-27T09:40:30.428Z,0.1
2018-12-27T09:41:31.931Z,0.1
2018-12-27T09:42:33.413Z,0.1
2018-12-27T09:43:34.875Z,0.1
2018-12-27T09:44:37.745Z,0.2
2018-12-27T09:45:39.298Z,0.3
2018-12-27T09:46:40.843Z,0.2
2018-12-27T09:47:42.331Z,0.2
2018-12-27T09:48:43.839Z,0.1
2018-12-27T09:49:46.157Z,0.1
2018-12-27T09:50:47.713Z,0.1
2018-12-27T09:51:49.288Z,-0.0
2018-12-27T09:52:50.843Z,0.1
2018-12-27T09:53:52.432Z,0.1
2018-12-27T09:54:53.979Z,0.1
2018-12-27T09:55:55.598Z,0.1
2018-12-27T09:56:58.023Z,0.0
2018-12-27T09:58:00.374Z,-0.1
2018-12-27T09:59:02.682Z,0.0
2018-12-27T10:00:03.340Z,-0.0
2018-12-27T10:01:05.859Z,0.0
2018-12-27T10:02:07.457Z,0.1
2018-12-27T10:03:08.968Z,0.0
2018-12-27T10:04:11.333Z,0.0
2018-12-27T10:05:13.407Z,0.1
2018-12-27T10:06:15.819Z,0.0
2018-12-27T10:07:17.961Z,0.0
2018-12-27T10:08:19.452Z,0.0
2018-12-27T10:09:21.799Z,0.0
2018-12-27T10:10:23.335Z,0.0
2018-12-27T10:11:24.824Z,0.0
2018-12-27T10:12:26.346Z,0.0
2018-12-27T10:13:27.834Z,0.1
2018-12-27T10:14:29.282Z,0.0
2018-12-27T10:15:31.641Z,0.1
2018-12-27T10:16:33.096Z,0.0
2018-12-27T10:17:34.541Z,0.1
2018-12-27T10:18:36.029Z,0.1
2018-12-27T10:19:37.488Z,0.1
2018-12-27T10:20:38.977Z,0.2
2018-12-27T10:21:40.469Z,0.0
2018-12-27T10:22:41.949Z,0.1
2018-12-27T10:23:43.429Z,0.0
2018-12-27T10:24:44.937Z,0.0
2018-12-27T10:25:46.422Z,0.0
2018-12-27T10:26:47.908Z,-0.0
2018-12-27T10:27:49.358Z,0.0
2018-12-27T10:28:50.857Z,0.0
2018-12-27T10:29:52.372Z,0.0
2018-12-27T10:30:59.628Z,0.1
2018-12-27T10:31:55.547Z,0.0
2018-12-27T10:32:56.994Z,0.2
2018-12-27T10:33:58.467Z,0.1
2018-12-27T10:34:59.933Z,0.1
2018-12-27T10:36:01.427Z,0.1
2018-12-27T10:37:02.892Z,0.1
2018-12-27T10:38:04.457Z,0.1
2018-12-27T10:39:05.932Z,0.1
2018-12-27T10:40:07.429Z,0.1
2018-12-27T10:41:09.967Z,0.2
2018-12-27T10:42:12.279Z,0.2
2018-12-27T10:43:13.747Z,0.1
2018-12-27T10:44:15.858Z,0.1
2018-12-27T10:45:17.279Z,0.1
2018-12-27T10:46:18.877Z,0.1
2018-12-27T10:47:21.171Z,0.1
2018-12-27T10:48:23.514Z,0.1
2018-12-27T10:49:25.261Z,0.2
2018-12-27T10:50:26.930Z,0.2
2018-12-27T10:51:29.059Z,0.2
2018-12-27T10:52:30.734Z,0.2
2018-12-27T10:53:32.412Z,0.2
2018-12-27T10:54:33.968Z,0.2
2018-12-27T10:55:35.572Z,0.2
2018-12-27T10:56:37.135Z,0.3
2018-12-27T10:57:38.684Z,0.2
2018-12-27T10:58:41.159Z,0.2
2018-12-27T10:59:44.308Z,0.3
2018-12-27T11:00:46.358Z,0.3
2018-12-27T11:01:48.610Z,0.3
2018-12-27T11:02:50.235Z,0.4
2018-12-27T11:03:51.717Z,0.4
2018-12-27T11:04:53.205Z,0.3
2018-12-27T11:05:54.713Z,0.4
2018-12-27T11:06:56.201Z,0.4
2018-12-27T11:07:58.198Z,0.4
2018-12-27T11:08:59.178Z,0.3
2018-12-27T11:10:00.708Z,0.4
2018-12-27T11:11:02.184Z,0.4
2018-12-27T11:12:03.775Z,0.4
2018-12-27T11:13:05.287Z,0.4
2018-12-27T11:14:06.758Z,0.4
2018-12-27T11:15:08.235Z,0.4
2018-12-27T11:16:09.674Z,0.4
2018-12-27T11:17:11.199Z,0.4
2018-12-27T11:18:12.684Z,0.4
2018-12-27T11:19:14.465Z,0.5
2018-12-27T11:20:15.949Z,0.4
2018-12-27T11:21:17.563Z,0.4
2018-12-27T11:22:19.046Z,0.3
2018-12-27T11:23:20.928Z,0.4
2018-12-27T11:24:22.422Z,0.5
2018-12-27T11:25:24.295Z,0.5
2018-12-27T11:26:26.068Z,0.4
2018-12-27T11:27:27.630Z,0.4
2018-12-27T11:28:29.084Z,0.4
2018-12-27T11:29:30.539Z,0.4
2018-12-27T11:30:32.082Z,0.4
2018-12-27T11:31:33.550Z,0.5
2018-12-27T11:32:35.107Z,0.5
2018-12-27T11:33:38.428Z,0.5
2018-12-27T11:34:39.943Z,0.5
2018-12-27T11:35:41.409Z,0.6
2018-12-27T11:36:42.965Z,0.5
2018-12-27T11:37:44.433Z,0.6
2018-12-27T11:38:46.624Z,0.7
2018-12-27T11:39:48.106Z,0.7
2018-12-27T11:40:49.594Z,0.7
2018-12-27T11:41:51.093Z,0.7
2018-12-27T11:42:52.622Z,0.6
2018-12-27T11:43:54.730Z,0.7
2018-12-27T11:44:57.453Z,0.7
2018-12-27T11:45:59.522Z,0.7
2018-12-27T11:47:02.148Z,0.8
2018-12-27T11:48:03.637Z,0.7
2018-12-27T11:49:05.219Z,0.6
2018-12-27T11:50:06.965Z,0.8
2018-12-27T11:51:09.707Z,0.7
2018-12-27T11:52:10.329Z,0.6
2018-12-27T11:53:11.823Z,0.7
2018-12-27T11:54:13.242Z,0.7
2018-12-27T11:55:14.757Z,0.8
2018-12-27T11:56:16.314Z,0.7
2018-12-27T11:57:17.818Z,0.8
2018-12-27T11:58:19.359Z,0.8
2018-12-27T11:59:21.030Z,0.8
2018-12-27T12:00:22.520Z,0.8
2018-12-27T12:01:24.053Z,0.8
2018-12-27T12:02:31.116Z,0.8
2018-12-27T12:03:27.233Z,0.8
2018-12-27T12:04:28.710Z,0.8
2018-12-27T12:05:30.290Z,0.8
2018-12-27T12:06:32.408Z,0.9
2018-12-27T12:07:34.410Z,0.8
2018-12-27T12:08:36.378Z,0.8
2018-12-27T12:09:38.233Z,0.7
2018-12-27T12:10:40.995Z,0.7
2018-12-27T12:11:43.042Z,0.8
2018-12-27T12:12:44.998Z,0.8
2018-12-27T12:13:46.845Z,0.8
2018-12-27T12:14:48.835Z,0.7
2018-12-27T12:15:51.158Z,0.8
2018-12-27T12:16:52.808Z,0.8
2018-12-27T12:17:54.473Z,0.8
2018-12-27T12:18:57.040Z,0.7
2018-12-27T12:19:59.060Z,0.8
2018-12-27T12:21:01.049Z,0.6
2018-12-27T12:22:03.006Z,0.7
2018-12-27T12:23:04.901Z,0.8
2018-12-27T12:24:07.470Z,0.7
2018-12-27T12:25:09.364Z,0.8
2018-12-27T12:26:11.294Z,0.8
2018-12-27T12:27:13.279Z,0.8
2018-12-27T12:28:15.360Z,0.8
2018-12-27T12:29:17.283Z,0.8
2018-12-27T12:30:19.429Z,0.9
2018-12-27T12:31:21.474Z,0.9
2018-12-27T12:32:23.487Z,0.9
2018-12-27T12:33:25.388Z,0.9
2018-12-27T12:34:27.388Z,0.8
2018-12-27T12:35:29.293Z,0.9
2018-12-27T12:36:31.209Z,0.8
2018-12-27T12:37:33.720Z,0.9
2018-12-27T12:38:35.693Z,0.9
2018-12-27T12:39:38.081Z,0.9
2018-12-27T12:40:39.768Z,0.9
2018-12-27T12:41:42.714Z,0.9
2018-12-27T12:42:43.681Z,0.8
2018-12-27T12:43:45.490Z,0.8
2018-12-27T12:44:47.388Z,0.8
2018-12-27T12:45:48.895Z,0.8
2018-12-27T12:46:50.960Z,0.8
2018-12-27T12:47:52.833Z,0.8
2018-12-27T12:48:54.594Z,0.8
2018-12-27T12:49:56.674Z,0.8
2018-12-27T12:50:58.830Z,0.8
2018-12-27T12:52:01.404Z,0.9
2018-12-27T12:53:03.609Z,0.8
2018-12-27T12:54:06.398Z,0.8
2018-12-27T12:55:08.698Z,0.9
2018-12-27T12:56:11.646Z,0.9
2018-12-27T12:57:14.018Z,0.9
2018-12-27T12:58:15.739Z,1.0
2018-12-27T12:59:17.614Z,0.9
2018-12-27T13:00:19.646Z,0.9
2018-12-27T13:01:21.541Z,0.9
2018-12-27T13:02:23.433Z,1.0
2018-12-27T13:03:26.920Z,1.0
2018-12-27T13:04:29.724Z,1.0
2018-12-27T13:05:30.719Z,1.0
2018-12-27T13:06:32.750Z,0.9
2018-12-27T13:07:35.639Z,1.0
2018-12-27T13:08:36.711Z,1.0
2018-12-27T13:09:38.544Z,1.0
2018-12-27T13:10:40.506Z,1.0
2018-12-27T13:11:42.591Z,1.0
2018-12-27T13:12:44.499Z,1.0
2018-12-27T13:13:46.390Z,1.0
2018-12-27T13:14:48.363Z,0.9
2018-12-27T13:15:50.405Z,0.9
2018-12-27T13:16:52.474Z,0.9
2018-12-27T13:17:54.474Z,1.0
2018-12-27T13:18:56.394Z,1.0
2018-12-27T13:19:59.130Z,0.9
2018-12-27T13:21:00.970Z,0.9
2018-12-27T13:22:02.948Z,0.9
2018-12-27T13:23:04.776Z,1.0
2018-12-27T13:24:06.595Z,1.0
2018-12-27T13:25:08.610Z,1.0
2018-12-27T13:26:11.496Z,1.0
2018-12-27T13:27:13.425Z,1.1
2018-12-27T13:28:15.586Z,1.0
2018-12-27T13:29:17.602Z,1.0
2018-12-27T13:30:20.119Z,1.0
2018-12-27T13:31:22.033Z,1.0
2018-12-27T13:32:24.044Z,1.0
2018-12-27T13:33:26.189Z,1.0
2018-12-27T13:34:28.882Z,1.0
2018-12-27T13:35:31.112Z,1.0
2018-12-27T13:36:33.127Z,1.0
2018-12-27T13:37:35.318Z,1.0
2018-12-27T13:38:37.246Z,1.0
2018-12-27T13:39:40.440Z,1.0
2018-12-27T13:40:42.464Z,1.0
2018-12-27T13:41:44.540Z,1.1
2018-12-27T13:42:46.629Z,1.0
2018-12-27T13:43:48.651Z,1.0
2018-12-27T13:44:50.776Z,1.0
2018-12-27T13:45:53.569Z,1.0
2018-12-27T13:46:56.050Z,1.0
2018-12-27T13:47:58.170Z,0.9
2018-12-27T13:49:00.246Z,1.0
2018-12-27T13:50:02.334Z,1.0
2018-12-27T13:51:04.441Z,0.9
2018-12-27T13:52:07.226Z,1.0
2018-12-27T13:53:09.310Z,0.9
2018-12-27T13:54:12.160Z,1.0